Time;durP1;ratioP1;P1;durP2;ratioP2;P2;SDS_P1;SDS_P2;PMS_P1;PMS_P2;Temp;Humidity;BMP_temperature;BMP_pressure;BME280_temperature;BME280_humidity;BME280_pressure;Samples;Min_cycle;Max_cycle;Signal;HPM_P1;HPM_P2
2023/08/02 00:02:15;;;;;;;4.90;1.37;;;17.10;99.90;;;;;;6119032;23;20279;-87
2023/08/02 00:04:43;;;;;;;2.70;1.13;;;17.10;99.90;;;;;;6094924;23;20223;-84
2023/08/02 00:07:09;;;;;;;1.00;0.80;;;17.10;99.90;;;;;;6095288;23;20198;-83
2023/08/02 00:09:34;;;;;;;3.43;1.10;;;17.10;99.90;;;;;;6094812;23;20207;-83
2023/08/02 00:12:00;;;;;;;3.13;1.00;;;17.10;99.90;;;;;;6095540;23;20256;-85
2023/08/02 00:14:26;;;;;;;3.93;1.43;;;17.10;99.90;;;;;;6095211;23;20222;-83
2023/08/02 00:16:52;;;;;;;6.13;1.27;;;17.10;99.90;;;;;;6094449;23;20218;-87
2023/08/02 00:19:18;;;;;;;2.93;1.50;;;17.20;99.90;;;;;;6094438;23;20196;-83
2023/08/02 00:21:44;;;;;;;3.30;1.17;;;17.10;99.90;;;;;;6094621;23;20202;-84
2023/08/02 00:24:10;;;;;;;5.27;1.10;;;17.10;99.90;;;;;;6119920;23;20160;-83
2023/08/02 00:26:36;;;;;;;1.43;0.90;;;17.10;99.90;;;;;;6118595;23;20212;-86
2023/08/02 00:29:02;;;;;;;2.77;1.03;;;17.10;99.90;;;;;;6094226;23;20656;-83
2023/08/02 00:31:28;;;;;;;3.70;1.13;;;17.10;99.90;;;;;;6094266;23;20198;-84
2023/08/02 00:33:54;;;;;;;7.17;1.60;;;17.10;99.90;;;;;;6094564;23;20270;-83
2023/08/02 00:36:19;;;;;;;2.33;1.30;;;17.20;99.90;;;;;;6094513;23;20161;-86
2023/08/02 00:38:45;;;;;;;2.70;1.40;;;17.10;99.90;;;;;;6095180;23;20259;-84
2023/08/02 00:41:11;;;;;;;3.63;1.10;;;17.10;99.90;;;;;;6094535;23;20226;-85
2023/08/02 00:43:44;;;;;;;1.60;1.50;;;17.10;99.90;;;;;;6094623;23;20242;-83
2023/08/02 00:46:12;;;;;;;3.13;1.53;;;17.10;99.90;;;;;;6118838;23;20251;-83
2023/08/02 00:48:38;;;;;;;2.43;1.20;;;17.00;99.90;;;;;;6118751;23;20515;-84
2023/08/02 00:51:07;;;;;;;1.67;0.93;;;17.10;99.90;;;;;;6095275;23;20174;-84
2023/08/02 00:53:32;;;;;;;3.30;1.83;;;17.00;99.90;;;;;;6118761;23;20331;-83
2023/08/02 00:55:58;;;;;;;6.80;1.90;;;17.00;99.90;;;;;;6094315;23;20291;-84
2023/08/02 00:58:24;;;;;;;3.97;1.50;;;17.00;99.90;;;;;;6094510;23;20653;-83
2023/08/02 01:00:50;;;;;;;4.43;1.27;;;17.00;99.90;;;;;;6094356;23;20198;-85
2023/08/02 01:03:16;;;;;;;1.80;1.47;;;17.00;99.90;;;;;;6094411;23;20532;-83
2023/08/02 01:05:51;;;;;;;5.60;1.87;;;16.90;99.90;;;;;;6095263;23;20492;-85
2023/08/02 01:08:25;;;;;;;2.97;1.60;;;16.90;99.90;;;;;;6118617;23;20204;-85
2023/08/02 01:11:19;;;;;;;4.63;1.77;;;16.90;99.90;;;;;;6118669;23;20192;-83
2023/08/02 01:13:50;;;;;;;1.80;1.67;;;16.90;99.90;;;;;;6118726;23;20824;-84
2023/08/02 01:16:17;;;;;;;3.13;1.73;;;16.90;99.90;;;;;;6120279;23;20242;-84
2023/08/02 01:18:43;;;;;;;5.40;2.20;;;16.80;99.90;;;;;;6119005;23;20489;-84
2023/08/02 01:21:09;;;;;;;3.63;2.03;;;16.80;99.90;;;;;;6071360;23;20159;-83
2023/08/02 01:23:35;;;;;;;1.83;1.57;;;16.80;99.90;;;;;;6093909;23;20704;-83
2023/08/02 01:26:04;;;;;;;2.47;2.20;;;16.70;99.90;;;;;;6094045;23;20290;-82
2023/08/02 01:28:33;;;;;;;2.93;2.43;;;16.70;99.90;;;;;;6118589;23;20203;-84
2023/08/02 01:31:00;;;;;;;3.50;2.67;;;16.70;99.90;;;;;;6120223;23;20188;-83
2023/08/02 01:33:27;;;;;;;3.73;1.70;;;16.70;99.90;;;;;;6118329;23;20164;-86
2023/08/02 01:35:53;;;;;;;2.90;2.03;;;16.70;99.90;;;;;;6119368;23;20532;-84
2023/08/02 01:38:19;;;;;;;2.20;2.00;;;16.60;99.90;;;;;;6094289;23;20282;-84
2023/08/02 01:40:44;;;;;;;2.93;2.70;;;16.60;99.90;;;;;;6118291;23;20269;-83
2023/08/02 01:43:10;;;;;;;3.57;3.07;;;16.60;99.90;;;;;;6118148;23;20200;-84
2023/08/02 01:45:36;;;;;;;6.97;2.30;;;16.60;99.90;;;;;;6094481;23;20230;-84
2023/08/02 01:48:02;;;;;;;2.83;2.37;;;16.50;99.90;;;;;;6094596;23;20192;-87
2023/08/02 01:50:27;;;;;;;2.67;2.23;;;16.50;99.90;;;;;;6093974;23;20223;-84
2023/08/02 01:52:53;;;;;;;8.40;3.40;;;16.40;99.90;;;;;;6094218;23;20220;-84
2023/08/02 01:55:20;;;;;;;3.70;2.83;;;16.40;99.90;;;;;;6093950;23;20188;-84
2023/08/02 01:57:45;;;;;;;6.17;3.23;;;16.40;99.90;;;;;;6118410;23;20196;-85
2023/08/02 02:00:12;;;;;;;3.27;2.00;;;16.40;99.90;;;;;;6094630;23;20251;-84
2023/08/02 02:02:39;;;;;;;3.87;2.63;;;16.30;99.90;;;;;;6094320;23;20184;-84
2023/08/02 02:05:05;;;;;;;4.87;3.20;;;16.30;99.90;;;;;;6118313;23;20192;-85
2023/08/02 02:07:31;;;;;;;6.10;3.37;;;16.30;99.90;;;;;;6094313;23;20196;-84
2023/08/02 02:09:57;;;;;;;6.30;2.77;;;16.30;99.90;;;;;;6094022;23;20203;-83
2023/08/02 02:12:22;;;;;;;5.03;2.90;;;16.20;99.90;;;;;;6094193;23;20255;-87
2023/08/02 02:14:48;;;;;;;4.50;3.13;;;16.20;99.90;;;;;;6095291;23;20166;-83
2023/08/02 02:17:14;;;;;;;3.07;2.77;;;16.10;99.90;;;;;;6095242;23;20532;-87
2023/08/02 02:19:40;;;;;;;3.87;2.97;;;16.20;99.90;;;;;;6096228;23;20676;-84
2023/08/02 02:22:06;;;;;;;7.20;3.00;;;16.10;99.90;;;;;;6095835;23;20259;-85
2023/08/02 02:24:32;;;;;;;8.47;3.40;;;16.20;99.90;;;;;;6095686;23;20243;-83
2023/08/02 02:26:57;;;;;;;8.27;3.57;;;16.20;99.90;;;;;;6095984;23;20204;-84
2023/08/02 02:29:23;;;;;;;3.60;2.90;;;16.20;99.90;;;;;;6095491;23;20263;-83
2023/08/02 02:31:49;;;;;;;9.00;3.30;;;16.20;99.90;;;;;;6095871;23;20231;-85
2023/08/02 02:34:15;;;;;;;5.13;2.43;;;16.10;99.90;;;;;;6095597;23;20242;-83
2023/08/02 02:36:43;;;;;;;3.20;2.90;;;16.10;99.90;;;;;;6095786;23;20196;-87
2023/08/02 02:39:09;;;;;;;5.97;3.77;;;16.20;99.90;;;;;;6097169;23;20216;-84
2023/08/02 02:41:35;;;;;;;7.70;3.20;;;16.20;99.90;;;;;;6095327;23;20661;-84
2023/08/02 02:44:00;;;;;;;6.10;2.30;;;16.20;99.90;;;;;;6095652;23;20637;-83
2023/08/02 02:46:26;;;;;;;3.80;2.60;;;16.20;99.90;;;;;;6095398;23;20206;-84
2023/08/02 02:48:52;;;;;;;3.50;3.20;;;16.20;99.90;;;;;;6095648;23;20235;-83
2023/08/02 02:51:17;;;;;;;6.27;2.93;;;16.20;99.90;;;;;;6095481;23;20160;-86
2023/08/02 02:53:43;;;;;;;4.10;2.67;;;16.20;99.90;;;;;;6096155;23;20164;-84
2023/08/02 02:56:09;;;;;;;5.77;3.43;;;16.20;99.90;;;;;;6095173;23;20242;-84
2023/08/02 02:58:34;;;;;;;13.77;3.27;;;16.20;99.90;;;;;;6095660;23;20199;-84
2023/08/02 03:01:00;;;;;;;5.77;3.10;;;16.20;99.90;;;;;;6119619;23;20215;-85
2023/08/02 03:03:26;;;;;;;7.20;2.77;;;16.20;99.90;;;;;;6095399;23;20184;-83
2023/08/02 03:05:55;;;;;;;3.47;2.30;;;16.20;99.90;;;;;;6096131;23;20171;-83
2023/08/02 03:08:20;;;;;;;2.53;2.17;;;16.20;99.90;;;;;;6119250;23;20286;-83
2023/08/02 03:10:46;;;;;;;3.73;2.97;;;16.20;99.90;;;;;;6095353;23;20685;-83
2023/08/02 03:13:12;;;;;;;4.80;2.83;;;16.20;99.90;;;;;;6095197;23;20211;-83
2023/08/02 03:15:38;;;;;;;7.37;3.37;;;16.20;99.90;;;;;;6095240;23;20511;-84
2023/08/02 03:18:03;;;;;;;2.90;2.47;;;16.20;99.90;;;;;;6096348;23;20170;-84
2023/08/02 03:20:29;;;;;;;8.93;3.00;;;16.20;99.90;;;;;;6095146;23;20200;-84
2023/08/02 03:22:55;;;;;;;4.73;2.73;;;16.10;99.90;;;;;;6095243;23;20510;-84
2023/08/02 03:25:21;;;;;;;6.17;2.77;;;16.10;99.90;;;;;;6094698;23;20630;-87
2023/08/02 03:27:46;;;;;;;5.20;3.17;;;16.10;99.90;;;;;;6095267;23;20208;-84
2023/08/02 03:30:12;;;;;;;5.17;3.10;;;16.10;99.90;;;;;;6095326;23;20171;-85
2023/08/02 03:32:38;;;;;;;2.93;2.60;;;16.10;99.90;;;;;;6071705;23;20187;-84
2023/08/02 03:35:04;;;;;;;7.47;3.10;;;16.00;99.90;;;;;;6094823;23;20196;-85
2023/08/02 03:37:30;;;;;;;8.70;2.60;;;16.00;99.90;;;;;;6094889;23;20259;-84
2023/08/02 03:39:56;;;;;;;5.33;2.70;;;16.00;99.90;;;;;;6095215;23;20192;-84
2023/08/02 03:42:21;;;;;;;5.37;2.60;;;16.00;99.90;;;;;;6094614;23;20165;-84
2023/08/02 03:44:47;;;;;;;4.33;2.63;;;15.90;99.90;;;;;;6120012;23;20191;-86
2023/08/02 03:47:13;;;;;;;5.97;2.57;;;15.90;99.90;;;;;;6118691;23;20540;-84
2023/08/02 03:49:40;;;;;;;3.60;2.87;;;15.90;99.90;;;;;;6118972;23;20230;-86
2023/08/02 03:52:06;;;;;;;6.70;3.23;;;15.80;99.90;;;;;;6094509;23;20196;-84
2023/08/02 03:54:32;;;;;;;6.07;2.60;;;15.80;99.90;;;;;;6094666;23;20169;-86
2023/08/02 03:56:58;;;;;;;3.07;2.33;;;15.80;99.90;;;;;;6096018;23;20168;-84
2023/08/02 03:59:23;;;;;;;4.70;2.00;;;15.80;99.90;;;;;;6094938;23;20251;-84
2023/08/02 04:01:49;;;;;;;3.60;2.60;;;15.80;99.90;;;;;;6094694;23;20207;-84
2023/08/02 04:04:15;;;;;;;11.77;2.67;;;15.80;99.90;;;;;;6094600;23;20191;-84
2023/08/02 04:06:41;;;;;;;5.43;1.77;;;15.90;99.90;;;;;;6094812;23;20191;-83
2023/08/02 04:09:06;;;;;;;8.87;3.17;;;15.90;99.90;;;;;;6119706;23;20632;-88
2023/08/02 04:11:32;;;;;;;4.63;2.20;;;16.00;99.90;;;;;;6094504;23;20204;-84
2023/08/02 04:13:58;;;;;;;8.73;3.83;;;16.00;99.90;;;;;;6095021;23;20200;-83
2023/08/02 04:16:24;;;;;;;11.37;3.63;;;16.10;99.90;;;;;;6095040;23;20199;-84
2023/08/02 04:18:49;;;;;;;4.53;2.67;;;16.10;99.90;;;;;;6094816;23;20199;-84
2023/08/02 04:21:19;;;;;;;10.57;3.77;;;16.10;99.90;;;;;;6094822;23;20160;-83
2023/08/02 04:23:47;;;;;;;6.30;2.30;;;16.10;99.90;;;;;;6119677;23;20167;-84
2023/08/02 04:26:13;;;;;;;7.17;3.93;;;16.10;99.90;;;;;;6094250;23;20212;-88
2023/08/02 04:28:39;;;;;;;10.27;3.73;;;16.10;99.90;;;;;;6118954;23;20215;-83
2023/08/02 04:31:05;;;;;;;14.87;4.40;;;16.10;99.90;;;;;;6094114;23;20196;-86
2023/08/02 04:33:31;;;;;;;7.70;2.93;;;16.10;99.90;;;;;;6119060;23;20249;-84
2023/08/02 04:36:00;;;;;;;4.53;3.33;;;16.10;99.90;;;;;;6095590;23;20578;-83
2023/08/02 04:38:26;;;;;;;5.83;4.17;;;16.10;99.90;;;;;;6118398;23;20214;-84
2023/08/02 04:40:52;;;;;;;4.30;2.80;;;16.10;99.90;;;;;;6094095;23;20512;-83
2023/08/02 04:43:18;;;;;;;7.23;3.80;;;16.20;99.90;;;;;;6119065;23;20218;-84
2023/08/02 04:45:44;;;;;;;4.57;3.07;;;16.10;99.90;;;;;;6094209;23;20282;-83
2023/08/02 04:48:10;;;;;;;5.03;3.03;;;16.20;99.90;;;;;;6095478;23;20192;-83
2023/08/02 04:50:35;;;;;;;7.83;2.97;;;16.10;99.90;;;;;;6118743;23;20231;-84
2023/08/02 04:53:01;;;;;;;11.27;4.23;;;16.20;99.90;;;;;;6094061;23;20227;-84
2023/08/02 04:55:27;;;;;;;6.40;2.73;;;16.20;99.90;;;;;;6094000;23;20204;-84
2023/08/02 04:57:53;;;;;;;5.57;3.60;;;16.20;99.90;;;;;;6118565;23;20192;-83
2023/08/02 05:00:19;;;;;;;5.70;2.87;;;16.20;99.90;;;;;;6094532;23;20168;-84
2023/08/02 05:02:45;;;;;;;5.13;2.40;;;16.20;99.90;;;;;;6071197;23;20582;-84
2023/08/02 05:05:11;;;;;;;6.97;2.00;;;16.10;99.90;;;;;;6093862;23;20699;-85
2023/08/02 05:07:38;;;;;;;8.83;3.33;;;16.10;99.90;;;;;;6094279;23;20630;-83
2023/08/02 05:10:04;;;;;;;11.33;3.87;;;16.20;99.90;;;;;;6094157;23;20200;-84
2023/08/02 05:12:34;;;;;;;4.07;2.70;;;16.10;99.90;;;;;;6118307;23;20160;-83
2023/08/02 05:15:00;;;;;;;5.30;2.97;;;16.10;99.90;;;;;;6119353;23;20144;-85
2023/08/02 05:17:29;;;;;;;12.90;3.80;;;16.10;99.90;;;;;;6093857;23;20210;-84
2023/08/02 05:19:55;;;;;;;3.53;2.07;;;16.10;99.90;;;;;;6118519;23;20701;-84
2023/08/02 05:22:21;;;;;;;7.37;2.77;;;16.10;99.90;;;;;;6094062;23;20199;-85
2023/08/02 05:24:48;;;;;;;9.60;3.40;;;16.10;99.90;;;;;;6094169;23;20199;-86
2023/08/02 05:27:14;;;;;;;4.07;2.83;;;16.20;99.90;;;;;;6094528;23;20203;-85
2023/08/02 05:29:40;;;;;;;8.40;3.37;;;16.20;99.90;;;;;;6094894;23;20242;-85
2023/08/02 05:32:06;;;;;;;15.17;3.57;;;16.40;99.90;;;;;;6093962;23;20196;-84
2023/08/02 05:34:32;;;;;;;7.03;4.07;;;16.70;99.90;;;;;;6093888;23;20195;-88
2023/08/02 05:36:57;;;;;;;6.40;4.23;;;16.50;99.90;;;;;;6093890;23;20216;-84
2023/08/02 05:39:23;;;;;;;6.37;3.97;;;16.50;99.90;;;;;;6118197;23;20219;-84
2023/08/02 05:41:49;;;;;;;6.20;2.50;;;16.60;99.90;;;;;;6094797;23;20211;-83
2023/08/02 05:44:15;;;;;;;6.67;3.03;;;16.50;99.90;;;;;;6094071;23;20274;-85
2023/08/02 05:46:41;;;;;;;7.13;3.77;;;16.40;99.90;;;;;;6094445;23;20197;-86
2023/08/02 05:49:06;;;;;;;6.77;3.97;;;16.40;99.90;;;;;;6118966;23;20211;-87
2023/08/02 05:51:32;;;;;;;6.93;3.13;;;16.40;99.90;;;;;;6095600;23;20381;-87
2023/08/02 05:53:58;;;;;;;8.97;3.60;;;16.40;99.90;;;;;;6097676;23;20164;-85
2023/08/02 05:56:24;;;;;;;10.37;3.23;;;16.40;99.90;;;;;;6096471;23;20206;-86
2023/08/02 05:58:49;;;;;;;5.23;3.13;;;16.40;99.90;;;;;;6096566;23;20196;-87
2023/08/02 06:01:15;;;;;;;7.70;4.10;;;16.60;99.90;;;;;;6096584;23;20219;-87
2023/08/02 06:03:41;;;;;;;6.60;3.27;;;16.70;99.90;;;;;;6096431;23;20637;-87
2023/08/02 06:06:07;;;;;;;8.47;4.67;;;16.80;99.90;;;;;;6097421;23;20669;-88
2023/08/02 06:08:32;;;;;;;5.03;3.23;;;16.90;99.90;;;;;;6095531;23;20208;-86
2023/08/02 06:11:00;;;;;;;7.70;3.70;;;16.80;99.90;;;;;;6096274;23;20278;-87
2023/08/02 06:13:27;;;;;;;6.70;3.23;;;16.70;99.90;;;;;;6096701;23;20219;-87
2023/08/02 06:15:53;;;;;;;5.83;3.07;;;16.70;99.90;;;;;;6096628;23;20533;-89
2023/08/02 06:18:19;;;;;;;8.77;4.93;;;16.50;99.90;;;;;;6095978;23;20167;-88
2023/08/02 06:20:44;;;;;;;7.43;3.97;;;16.60;99.90;;;;;;6097133;23;20171;-85
2023/08/02 06:23:10;;;;;;;9.17;4.27;;;16.60;99.90;;;;;;6095919;23;20204;-85
2023/08/02 06:25:36;;;;;;;9.27;4.10;;;16.60;99.90;;;;;;6095348;23;20215;-84
2023/08/02 06:28:02;;;;;;;5.30;3.37;;;16.50;99.90;;;;;;6095486;23;20719;-86
2023/08/02 06:30:27;;;;;;;9.80;3.73;;;16.50;99.90;;;;;;6119846;23;20168;-87
2023/08/02 06:32:53;;;;;;;5.63;2.70;;;16.50;99.90;;;;;;6121339;23;20160;-88
2023/08/02 06:35:19;;;;;;;7.37;4.30;;;16.50;99.90;;;;;;6095438;23;20255;-87
2023/08/02 06:37:45;;;;;;;8.77;4.37;;;16.50;99.90;;;;;;6095421;23;20235;-86
2023/08/02 06:40:11;;;;;;;4.17;3.50;;;16.50;99.90;;;;;;6095923;23;20259;-87
2023/08/02 06:42:37;;;;;;;6.33;3.60;;;16.40;99.90;;;;;;6096097;23;20192;-86
2023/08/02 06:45:03;;;;;;;12.43;4.43;;;16.40;99.90;;;;;;6096642;23;20160;-86
2023/08/02 06:47:29;;;;;;;7.77;4.23;;;16.40;99.90;;;;;;6095900;23;20283;-85
2023/08/02 06:49:54;;;;;;;8.23;3.87;;;16.40;99.90;;;;;;6120301;23;20239;-87
2023/08/02 06:52:20;;;;;;;4.53;3.77;;;16.30;99.90;;;;;;6097061;23;20716;-89
2023/08/02 06:54:46;;;;;;;7.73;4.23;;;16.30;99.90;;;;;;6096787;23;20203;-88
2023/08/02 06:57:12;;;;;;;8.90;3.43;;;16.30;99.90;;;;;;6096909;23;20168;-88
2023/08/02 06:59:38;;;;;;;8.40;4.13;;;16.20;99.90;;;;;;6096284;23;20251;-87
2023/08/02 07:02:06;;;;;;;5.27;4.47;;;16.20;99.90;;;;;;6119530;23;20200;-88
2023/08/02 07:04:32;;;;;;;5.63;2.93;;;16.30;99.90;;;;;;6072908;23;20203;-86
2023/08/02 07:07:00;;;;;;;7.13;3.47;;;16.30;99.90;;;;;;6095849;23;20202;-88
2023/08/02 07:09:29;;;;;;;3.97;3.57;;;16.30;99.90;;;;;;6095368;23;20188;-86
2023/08/02 07:11:55;;;;;;;21.13;3.37;;;16.30;99.90;;;;;;6097142;23;20230;-86
2023/08/02 07:14:21;;;;;;;7.70;3.47;;;16.40;99.90;;;;;;6095629;23;20286;-87
2023/08/02 07:16:47;;;;;;;9.53;4.83;;;16.40;99.90;;;;;;6120168;23;20218;-87
2023/08/02 07:19:13;;;;;;;4.27;3.10;;;16.50;99.90;;;;;;6120569;23;20633;-87
2023/08/02 07:21:39;;;;;;;7.40;3.57;;;16.50;99.90;;;;;;6095651;23;20656;-87
2023/08/02 07:24:05;;;;;;;11.07;3.77;;;16.50;99.90;;;;;;6096148;23;20255;-86
2023/08/02 07:26:31;;;;;;;14.03;4.33;;;16.40;99.90;;;;;;6094646;23;20243;-87
2023/08/02 07:28:56;;;;;;;7.50;3.50;;;16.40;99.90;;;;;;6094787;23;20669;-87
2023/08/02 07:31:22;;;;;;;2.53;2.27;;;16.40;99.90;;;;;;6095598;23;20581;-87
2023/08/02 07:33:48;;;;;;;3.57;2.23;;;16.40;99.90;;;;;;6120086;23;20294;-86
2023/08/02 07:36:17;;;;;;;4.73;3.73;;;16.40;99.90;;;;;;6095134;23;20164;-86
2023/08/02 07:38:44;;;;;;;8.23;2.70;;;16.40;99.90;;;;;;6096526;23;20172;-86
2023/08/02 07:41:09;;;;;;;4.93;3.33;;;16.50;99.90;;;;;;6095122;23;20536;-89
2023/08/02 07:43:35;;;;;;;3.03;2.73;;;16.50;99.90;;;;;;6093297;23;20204;-87
2023/08/02 07:46:05;;;;;;;9.73;3.40;;;16.50;99.90;;;;;;6093988;23;20199;-87
2023/08/02 07:48:36;;;;;;;4.90;3.03;;;16.60;99.90;;;;;;6094556;23;20207;-88
2023/08/02 07:51:04;;;;;;;3.67;2.40;;;16.60;99.90;;;;;;6096994;23;20726;-88
2023/08/02 07:53:30;;;;;;;6.23;2.93;;;16.60;99.90;;;;;;6094946;23;20207;-87
2023/08/02 07:56:03;;;;;;;8.83;2.83;;;16.50;99.90;;;;;;6095138;23;20536;-85
2023/08/02 07:58:29;;;;;;;10.50;3.40;;;16.50;99.90;;;;;;6095113;23;20192;-86
2023/08/02 08:00:55;;;;;;;2.73;2.50;;;16.40;99.90;;;;;;6119011;23;20184;-87
2023/08/02 08:03:20;;;;;;;7.87;2.87;;;16.30;99.90;;;;;;6094571;23;20167;-86
2023/08/02 08:05:47;;;;;;;6.23;2.93;;;16.30;99.90;;;;;;6095527;23;20156;-87
2023/08/02 08:08:14;;;;;;;2.73;2.10;;;16.20;99.90;;;;;;6119178;23;20570;-86
2023/08/02 08:10:39;;;;;;;3.57;2.40;;;16.10;99.90;;;;;;6094604;23;20196;-88
2023/08/02 08:13:05;;;;;;;2.00;1.70;;;16.10;99.90;;;;;;6094683;23;20227;-87
2023/08/02 08:15:31;;;;;;;7.77;2.37;;;16.00;99.90;;;;;;6095311;23;20171;-86
2023/08/02 08:17:57;;;;;;;3.23;2.43;;;16.00;99.90;;;;;;6095707;23;20263;-87
2023/08/02 08:20:22;;;;;;;5.33;2.10;;;16.00;99.90;;;;;;6095058;23;20940;-87
2023/08/02 08:22:48;;;;;;;4.13;1.73;;;16.00;99.90;;;;;;6094753;23;20561;-87
2023/08/02 08:25:14;;;;;;;1.80;1.20;;;16.00;99.90;;;;;;6094927;23;20270;-88
2023/08/02 08:27:40;;;;;;;6.40;2.33;;;16.00;99.90;;;;;;6095218;23;20206;-88
2023/08/02 08:30:07;;;;;;;5.87;1.80;;;15.90;99.90;;;;;;6095688;23;20274;-86
2023/08/02 08:32:33;;;;;;;2.07;1.77;;;16.00;99.90;;;;;;6094832;23;20519;-87
2023/08/02 08:34:58;;;;;;;2.03;1.83;;;16.00;99.90;;;;;;6094757;23;20211;-87
2023/08/02 08:37:25;;;;;;;3.40;2.13;;;16.00;99.90;;;;;;6094633;23;20242;-87
2023/08/02 08:39:51;;;;;;;2.63;1.83;;;15.90;99.90;;;;;;6094631;23;20243;-88
2023/08/02 08:42:16;;;;;;;2.20;2.00;;;15.90;99.90;;;;;;6094918;23;20160;-87
2023/08/02 08:44:42;;;;;;;1.70;1.53;;;15.90;99.90;;;;;;6095508;23;20164;-88
2023/08/02 08:47:09;;;;;;;2.80;2.47;;;15.80;99.90;;;;;;6094964;23;20228;-88
2023/08/02 08:49:34;;;;;;;5.97;2.30;;;15.80;99.90;;;;;;6095337;23;20216;-89
2023/08/02 08:52:05;;;;;;;8.20;2.30;;;15.90;99.90;;;;;;6094805;23;20207;-88
2023/08/02 08:54:31;;;;;;;6.03;2.00;;;15.90;99.90;;;;;;6119500;23;20144;-88
2023/08/02 08:56:58;;;;;;;4.40;1.83;;;15.80;99.90;;;;;;6095892;23;20597;-88
2023/08/02 08:59:25;;;;;;;4.63;1.80;;;15.90;99.90;;;;;;6095093;23;20200;-89
2023/08/02 09:01:51;;;;;;;2.93;2.03;;;16.00;99.90;;;;;;6119815;23;20195;-89
2023/08/02 09:04:18;;;;;;;2.17;1.70;;;15.90;99.90;;;;;;6095351;23;20196;-90
2023/08/02 09:06:43;;;;;;;1.80;1.10;;;16.00;99.90;;;;;;6095859;23;20192;-90
2023/08/02 09:09:13;;;;;;;2.20;1.80;;;16.00;99.90;;;;;;6095951;23;20191;-90
2023/08/02 09:11:39;;;;;;;2.73;1.47;;;16.00;99.90;;;;;;6096713;23;20988;-89
2023/08/02 09:14:13;;;;;;;4.43;1.33;;;16.00;99.90;;;;;;6095679;23;20192;-89
2023/08/02 09:17:08;;;;;;;1.03;1.03;;;16.00;99.90;;;;;;6095308;23;20200;-89
2023/08/02 09:19:36;;;;;;;2.43;1.13;;;16.00;99.90;;;;;;6076574;23;20192;-88
2023/08/02 09:22:16;;;;;;;2.20;1.07;;;16.00;99.90;;;;;;6119775;23;20219;-89
2023/08/02 09:24:43;;;;;;;4.63;1.47;;;15.90;99.90;;;;;;6095577;23;20195;-89
2023/08/02 09:27:15;;;;;;;2.70;2.10;;;16.00;99.90;;;;;;6097921;23;20208;-89
2023/08/02 09:29:47;;;;;;;9.53;1.73;;;16.00;99.90;;;;;;6121769;23;20211;-89
2023/08/02 09:32:14;;;;;;;2.17;1.70;;;16.00;99.90;;;;;;6122090;23;20228;-89
2023/08/02 09:34:43;;;;;;;5.43;1.03;;;16.00;99.90;;;;;;6121970;23;20202;-89
2023/08/02 09:37:12;;;;;;;2.83;2.07;;;16.00;99.90;;;;;;6121534;23;20206;-89
2023/08/02 09:39:39;;;;;;;1.40;1.30;;;16.10;99.90;;;;;;6098122;23;20573;-88
2023/08/02 09:42:15;;;;;;;2.40;1.97;;;16.20;99.90;;;;;;6098214;23;20168;-89
2023/08/02 09:44:41;;;;;;;2.50;1.17;;;16.20;99.90;;;;;;6097910;23;20188;-90
2023/08/02 09:47:11;;;;;;;1.73;1.60;;;16.20;99.90;;;;;;6121423;23;20223;-89
2023/08/02 09:49:38;;;;;;;2.00;1.37;;;16.10;99.90;;;;;;6121533;23;20250;-88
2023/08/02 09:52:05;;;;;;;1.80;1.70;;;16.10;99.90;;;;;;6097222;23;20937;-88
2023/08/02 09:54:31;;;;;;;1.70;1.60;;;16.10;99.90;;;;;;6121127;23;20167;-87
2023/08/02 09:56:57;;;;;;;2.47;2.27;;;16.10;99.90;;;;;;6098004;23;20608;-89
2023/08/02 09:59:28;;;;;;;2.53;1.80;;;16.10;99.90;;;;;;6096542;23;20212;-89
2023/08/02 10:01:55;;;;;;;1.80;1.37;;;16.10;99.90;;;;;;6120725;23;20234;-88
2023/08/02 10:04:24;;;;;;;3.40;2.17;;;16.10;99.90;;;;;;6122623;23;20206;-89
2023/08/02 10:06:56;;;;;;;2.10;1.90;;;16.20;99.90;;;;;;6121035;23;20195;-88
2023/08/02 10:09:28;;;;;;;5.30;2.50;;;16.20;99.90;;;;;;6121260;23;20180;-88
2023/08/02 10:11:58;;;;;;;4.03;1.93;;;16.30;99.90;;;;;;6122008;23;20192;-88
2023/08/02 10:14:24;;;;;;;1.57;1.37;;;16.40;99.90;;;;;;6120948;23;20210;-88
2023/08/02 10:16:51;;;;;;;1.00;1.00;;;16.40;99.90;;;;;;6096258;23;20200;-87
2023/08/02 10:19:17;;;;;;;2.37;1.47;;;16.30;99.90;;;;;;6121253;23;20196;-89
2023/08/02 10:21:44;;;;;;;2.37;1.20;;;16.40;99.90;;;;;;6121027;23;20258;-88
2023/08/02 10:24:16;;;;;;;5.43;2.87;;;16.40;99.90;;;;;;6097939;23;20157;-89
2023/08/02 10:26:43;;;;;;;2.90;2.23;;;16.40;99.90;;;;;;6122293;23;20212;-88
2023/08/02 10:29:09;;;;;;;4.73;2.70;;;16.40;99.90;;;;;;6121705;23;20212;-89
2023/08/02 10:31:35;;;;;;;2.37;1.90;;;16.30;99.90;;;;;;6096789;23;20303;-89
2023/08/02 10:34:21;;;;;;;1.53;1.43;;;16.40;99.90;;;;;;6121405;23;20641;-88
2023/08/02 10:36:56;;;;;;;4.37;1.73;;;16.40;99.90;;;;;;6100101;23;20196;-88
2023/08/02 10:39:47;;;;;;;1.47;1.37;;;16.50;99.90;;;;;;6120864;23;20170;-88
2023/08/02 10:42:16;;;;;;;1.17;1.07;;;16.50;99.90;;;;;;6121910;23;20178;-85
2023/08/02 10:44:54;;;;;;;1.70;1.57;;;16.40;99.90;;;;;;6097742;23;20184;-85
2023/08/02 10:47:34;;;;;;;1.13;1.03;;;16.50;99.90;;;;;;6121273;23;20590;-87
2023/08/02 10:50:01;;;;;;;0.87;0.87;;;16.40;99.90;;;;;;6120924;23;20223;-86
2023/08/02 10:52:33;;;;;;;0.80;0.80;;;16.50;99.90;;;;;;6096488;23;20266;-87
2023/08/02 10:55:06;;;;;;;1.23;1.13;;;16.30;99.90;;;;;;6120462;23;20235;-89
2023/08/02 10:57:32;;;;;;;1.57;1.10;;;16.50;99.90;;;;;;6097221;23;20904;-88
2023/08/02 11:00:17;;;;;;;0.73;0.63;;;16.50;99.90;;;;;;6096877;23;20195;-88
2023/08/02 11:02:50;;;;;;;2.87;1.20;;;16.50;99.90;;;;;;6100846;23;20172;-88
2023/08/02 11:05:35;;;;;;;1.53;1.00;;;16.30;99.90;;;;;;6097319;23;20203;-88
2023/08/02 11:08:01;;;;;;;1.33;1.10;;;16.40;99.90;;;;;;6096442;23;20204;-88
2023/08/02 11:10:27;;;;;;;5.03;1.07;;;16.30;99.90;;;;;;6096091;23;20287;-88
2023/08/02 11:12:54;;;;;;;0.53;0.50;;;16.50;99.90;;;;;;6096220;23;20242;-88
2023/08/02 11:15:21;;;;;;;1.23;1.13;;;16.40;99.90;;;;;;6095643;23;20180;-88
2023/08/02 11:17:53;;;;;;;0.80;0.80;;;16.50;99.90;;;;;;6121036;23;20549;-87
2023/08/02 11:20:27;;;;;;;0.67;0.60;;;16.60;99.90;;;;;;6120452;23;20315;-87
2023/08/02 11:22:53;;;;;;;1.53;1.07;;;16.50;99.90;;;;;;6121632;23;20680;-87
2023/08/02 11:25:20;;;;;;;2.30;1.13;;;16.50;99.90;;;;;;6096570;23;20196;-88
2023/08/02 11:27:46;;;;;;;1.13;1.10;;;16.70;99.90;;;;;;6095387;23;20540;-88
2023/08/02 11:30:12;;;;;;;0.67;0.67;;;16.90;99.90;;;;;;6096588;23;20208;-88
2023/08/02 11:32:46;;;;;;;0.80;0.80;;;16.90;99.90;;;;;;6095112;23;20906;-86
2023/08/02 11:35:21;;;;;;;0.10;0.10;;;17.10;99.90;;;;;;6119942;23;20267;-88
2023/08/02 11:37:47;;;;;;;0.80;0.60;;;17.10;99.90;;;;;;6120111;23;20200;-88
2023/08/02 11:40:14;;;;;;;0.73;0.73;;;17.20;99.90;;;;;;6095416;23;20192;-88
2023/08/02 11:42:51;;;;;;;0.90;0.90;;;17.40;99.90;;;;;;6120200;23;20213;-87
2023/08/02 11:45:34;;;;;;;1.03;0.97;;;17.50;99.90;;;;;;6119869;23;20148;-88
2023/08/02 11:48:00;;;;;;;1.63;1.17;;;17.60;99.90;;;;;;6119625;23;20211;-88
2023/08/02 11:50:28;;;;;;;1.90;1.00;;;17.80;99.90;;;;;;6095117;23;20283;-87
2023/08/02 11:53:07;;;;;;;1.27;1.27;;;18.10;99.90;;;;;;6095066;23;20222;-87
2023/08/02 11:55:35;;;;;;;0.80;0.80;;;18.20;99.90;;;;;;6094286;23;20276;-88
2023/08/02 11:58:07;;;;;;;2.33;1.67;;;18.20;99.90;;;;;;6119593;23;20220;-87
2023/08/02 12:00:33;;;;;;;1.63;1.53;;;18.10;99.90;;;;;;6120024;23;20227;-86
2023/08/02 12:03:12;;;;;;;3.30;1.73;;;18.30;99.90;;;;;;6095945;23;20160;-88
2023/08/02 12:05:38;;;;;;;1.97;1.40;;;18.40;99.90;;;;;;6119294;23;20278;-87
2023/08/02 12:08:17;;;;;;;1.37;1.27;;;18.40;99.90;;;;;;6118869;23;20262;-87
2023/08/02 12:10:44;;;;;;;2.30;1.40;;;18.30;99.90;;;;;;6115409;23;20701;-87
2023/08/02 12:13:19;;;;;;;1.50;1.40;;;18.20;99.90;;;;;;6091244;23;20279;-86
2023/08/02 12:28:35;;;;;;;4.33;1.70;;;18.50;99.90;;;;;;6059874;23;20287;-86
2023/08/02 12:31:57;;;;;;;2.37;1.93;;;19.30;99.90;;;;;;6048996;23;20240;-87
2023/08/02 12:39:17;;;;;;;;;;;;;;;;;;;;;
2023/08/02 12:46:31;;;;;;;1.60;1.50;;;20.30;99.90;;;;;;5797894;24;20233;-87
2023/08/02 13:01:22;;;;;;;2.63;2.23;;;20.80;99.90;;;;;;5669809;25;20359;-87
2023/08/02 13:04:02;;;;;;;2.27;1.70;;;21.30;99.90;;;;;;5701141;25;20179;-87
2023/08/02 13:06:54;;;;;;;2.07;1.70;;;21.40;99.90;;;;;;5654624;25;20587;-87
2023/08/02 13:09:33;;;;;;;4.03;1.40;;;21.50;99.90;;;;;;5703277;25;20198;-86
2023/08/02 13:12:53;;;;;;;1.47;1.33;;;21.60;99.90;;;;;;5752136;24;20184;-86
2023/08/02 13:15:48;;;;;;;4.97;1.33;;;21.60;99.90;;;;;;5874163;24;20701;-87
2023/08/02 13:18:25;;;;;;;1.63;1.27;;;21.70;99.90;;;;;;5917728;24;20245;-88
2023/08/02 13:20:51;;;;;;;5.67;1.13;;;21.70;99.90;;;;;;5918665;24;20179;-88
2023/08/02 13:24:18;;;;;;;5.17;1.63;;;21.60;99.90;;;;;;5868525;24;20209;-88
2023/08/02 13:27:26;;;;;;;1.47;1.07;;;21.60;99.90;;;;;;5856497;24;20561;-88
2023/08/02 13:30:43;;;;;;;1.43;0.90;;;22.30;99.90;;;;;;5879509;24;20217;-89